Wetterstation Vordersexau
Wetterdaten: Woche 30.10.17 - 05.11.17 (KW44)
Datum Zeit Temp. A. Feuchte A. Luftdruck Regen Wind Richtung Taupunkt Windchill Windben
30.10.2017 00:00 2,3 C 78 % 1018,9 hPa 0,0 l/m 0,0 km/h O-SO -1,1 C 2,3 C 0,0 km/h
30.10.2017 01:00 2,1 C 77 % 1019,6 hPa 0,0 l/m 0,0 km/h N -1,5 C 2,1 C 0,0 km/h
30.10.2017 02:00 1,3 C 77 % 1019,9 hPa 0,0 l/m 0,0 km/h N -2,3 C 1,3 C 0,0 km/h
30.10.2017 03:00 1,1 C 77 % 1020,2 hPa 0,0 l/m 0,0 km/h N -2,5 C 1,1 C 0,0 km/h
30.10.2017 04:00 1,0 C 76 % 1020,8 hPa 0,0 l/m 0,0 km/h N -2,7 C 1,0 C 0,0 km/h
30.10.2017 05:00 0,4 C 76 % 1021,3 hPa 0,0 l/m 0,0 km/h N-NO -3,3 C 0,4 C 0,0 km/h
30.10.2017 06:00 0,2 C 75 % 1021,8 hPa 0,0 l/m 0,0 km/h O-SO -3,7 C 0,2 C 0,0 km/h
30.10.2017 07:00 0,4 C 74 % 1022,3 hPa 0,0 l/m 0,0 km/h O-SO -3,7 C 0,4 C 0,0 km/h
30.10.2017 08:00 4,6 C 68 % 1022,9 hPa 0,0 l/m 0,0 km/h SO -0,8 C 4,6 C 0,0 km/h
30.10.2017 09:00 9,5 C 84 % 1022,9 hPa 0,0 l/m 0,0 km/h SO 6,9 C 9,5 C 0,0 km/h
30.10.2017 10:00 13,2 C 76 % 1023,4 hPa 0,0 l/m 0,0 km/h S-SW 9,1 C 13,2 C 0,0 km/h
30.10.2017 11:00 16,6 C 63 % 1023,1 hPa 0,0 l/m 0,0 km/h W-NW 9,5 C 16,6 C 0,0 km/h
30.10.2017 12:00 16,3 C 54 % 1022,6 hPa 0,0 l/m 0,0 km/h N 7,0 C 16,3 C 0,0 km/h
30.10.2017 13:00 13,8 C 50 % 1022,9 hPa 0,0 l/m 16,2 km/h NO 3,6 C 9,3 C 9,0 km/h
30.10.2017 14:00 13,1 C 56 % 1023,1 hPa 0,0 l/m 0,0 km/h N 4,5 C 13,1 C 0,0 km/h
30.10.2017 15:00 15,9 C 49 % 1023,4 hPa 0,0 l/m 16,2 km/h N 5,2 C 11,9 C 9,0 km/h
30.10.2017 16:00 13,1 C 53 % 1023,8 hPa 0,0 l/m 0,0 km/h O-NO 3,7 C 13,1 C 0,0 km/h
30.10.2017 17:00 6,2 C 72 % 1024,4 hPa 0,0 l/m 0,0 km/h O-NO 1,5 C 6,2 C 0,0 km/h
30.10.2017 18:00 3,3 C 79 % 1024,9 hPa 0,0 l/m 0,0 km/h O-NO 0,0 C 3,3 C 0,0 km/h
30.10.2017 19:00 1,8 C 82 % 1025,1 hPa 0,0 l/m 0,0 km/h O -0,9 C 1,8 C 0,0 km/h
30.10.2017 20:00 1,9 C 84 % 1025,3 hPa 0,0 l/m 0,0 km/h O-SO -0,5 C 1,9 C 0,0 km/h
30.10.2017 21:00 1,8 C 84 % 1025,2 hPa 0,0 l/m 0,0 km/h O-SO -0,6 C 1,8 C 0,0 km/h
30.10.2017 22:00 1,8 C 84 % 1025,3 hPa 0,0 l/m 0,0 km/h O-SO -0,6 C 1,8 C 0,0 km/h
30.10.2017 23:00 1,2 C 84 % 1025,1 hPa 0,0 l/m 0,0 km/h O -1,2 C 1,2 C 0,0 km/h
31.10.2017 00:00 1,3 C 84 % 1024,9 hPa 0,0 l/m 0,0 km/h O -1,1 C 1,3 C 0,0 km/h
31.10.2017 01:00 0,9 C 84 % 1024,8 hPa 0,0 l/m 0,0 km/h NO -1,5 C 0,9 C 0,0 km/h
31.10.2017 02:00 0,2 C 84 % 1024,7 hPa 0,0 l/m 0,0 km/h O-SO -2,2 C 0,2 C 0,0 km/h
31.10.2017 03:00 0,2 C 83 % 1024,5 hPa 0,0 l/m 0,0 km/h O -2,3 C 0,2 C 0,0 km/h
31.10.2017 04:00 -0,8 C 83 % 1024,7 hPa 0,0 l/m 0,0 km/h O -3,3 C -0,8 C 0,0 km/h
31.10.2017 05:00 -1,6 C 83 % 1024,8 hPa 0,0 l/m 0,0 km/h O -4,1 C -1,6 C 0,0 km/h
31.10.2017 06:00 -2,0 C 84 % 1024,6 hPa 0,0 l/m 0,0 km/h O -4,3 C -2,0 C 0,0 km/h
31.10.2017 07:00 -2,1 C 83 % 1025,2 hPa 0,0 l/m 0,0 km/h O -4,6 C -2,1 C 0,0 km/h
31.10.2017 08:00 2,5 C 76 % 1025,4 hPa 0,5 l/m 0,0 km/h O -1,3 C 2,5 C 0,0 km/h
31.10.2017 09:00 11,1 C 79 % 1025,4 hPa 0,0 l/m 0,0 km/h W-SW 7,6 C 11,1 C 0,0 km/h
31.10.2017 10:00 13,1 C 63 % 1024,9 hPa 0,0 l/m 0,0 km/h W-SW 6,2 C 13,1 C 0,0 km/h
31.10.2017 11:00 12,8 C 62 % 1024,8 hPa 0,0 l/m 0,0 km/h N 5,7 C 12,8 C 0,0 km/h
31.10.2017 12:00 13,4 C 62 % 1024,2 hPa 0,0 l/m 0,0 km/h SW 6,3 C 13,4 C 0,0 km/h
31.10.2017 13:00 14,9 C 58 % 1023,6 hPa 0,0 l/m 0,0 km/h W 6,7 C 14,9 C 0,0 km/h
31.10.2017 14:00 17,8 C 49 % 1023,5 hPa 0,0 l/m 0,0 km/h W 6,9 C 17,8 C 0,0 km/h
31.10.2017 15:00 16,8 C 47 % 1023,3 hPa 0,0 l/m 0,0 km/h W 5,4 C 16,8 C 0,0 km/h
31.10.2017 16:00 13,0 C 53 % 1023,3 hPa 0,0 l/m 0,0 km/h W 3,6 C 13,0 C 0,0 km/h
31.10.2017 17:00 5,3 C 72 % 1023,5 hPa 0,0 l/m 0,0 km/h W 0,7 C 5,3 C 0,0 km/h
31.10.2017 18:00 2,9 C 78 % 1023,9 hPa 0,0 l/m 0,0 km/h W -0,5 C 2,9 C 0,0 km/h
31.10.2017 19:00 2,2 C 81 % 1023,8 hPa 0,0 l/m 0,0 km/h O -0,7 C 2,2 C 0,0 km/h
31.10.2017 20:00 2,4 C 83 % 1023,5 hPa 0,0 l/m 0,0 km/h O -0,2 C 2,4 C 0,0 km/h
31.10.2017 21:00 1,5 C 84 % 1023,7 hPa 0,0 l/m 0,0 km/h O-SO -0,9 C 1,5 C 0,0 km/h
31.10.2017 22:00 1,8 C 84 % 1023,5 hPa 0,0 l/m 0,0 km/h O -0,6 C 1,8 C 0,0 km/h
31.10.2017 23:00 1,9 C 84 % 1023,3 hPa 0,0 l/m 0,0 km/h O -0,5 C 1,9 C 0,0 km/h
01.11.2017 00:00 1,9 C 84 % 1022,9 hPa 0,0 l/m 0,0 km/h O-SO -0,5 C 1,9 C 0,0 km/h
01.11.2017 01:00 1,5 C 84 % 1022,9 hPa 0,0 l/m 0,0 km/h O-NO -0,9 C 1,5 C 0,0 km/h
01.11.2017 02:00 1,6 C 83 % 1023,1 hPa 0,0 l/m 0,0 km/h O-SO -1,0 C 1,6 C 0,0 km/h
01.11.2017 03:00 2,2 C 82 % 1022,9 hPa 0,0 l/m 0,0 km/h O-SO -0,5 C 2,2 C 0,0 km/h
01.11.2017 04:00 1,1 C 82 % 1022,5 hPa 0,0 l/m 0,0 km/h NO -1,6 C 1,1 C 0,0 km/h
01.11.2017 05:00 0,8 C 83 % 1022,2 hPa 0,0 l/m 0,0 km/h NO -1,8 C 0,8 C 0,0 km/h
01.11.2017 06:00 0,1 C 83 % 1022,3 hPa 0,0 l/m 0,0 km/h NO -2,4 C 0,1 C 0,0 km/h
01.11.2017 07:00 0,8 C 82 % 1022,5 hPa 0,0 l/m 0,0 km/h NO -1,9 C 0,8 C 0,0 km/h
01.11.2017 08:00 6,4 C 77 % 1022,5 hPa 0,0 l/m 0,0 km/h N 2,7 C 6,4 C 0,0 km/h
01.11.2017 09:00 13,8 C 75 % 1022,3 hPa 0,0 l/m 0,0 km/h W-NW 9,4 C 13,8 C 0,0 km/h
01.11.2017 10:00 15,6 C 59 % 1022,2 hPa 0,0 l/m 0,0 km/h W-SW 7,6 C 15,6 C 0,0 km/h
01.11.2017 11:00 17,4 C 52 % 1021,4 hPa 0,0 l/m 0,0 km/h W-NW 7,4 C 17,4 C 0,0 km/h
01.11.2017 12:00 18,3 C 47 % 1020,6 hPa 0,0 l/m 0,0 km/h N-NW 6,8 C 18,3 C 0,0 km/h
01.11.2017 13:00 20,2 C 44 % 1019,7 hPa 0,0 l/m 0,0 km/h W 7,6 C 20,2 C 0,0 km/h
01.11.2017 14:00 23,0 C 37 % 1019,2 hPa 0,0 l/m 0,0 km/h N-NW 7,5 C 23,0 C 0,0 km/h
01.11.2017 15:00 20,5 C 40 % 1018,8 hPa 0,0 l/m 0,0 km/h N-NW 6,4 C 20,5 C 0,0 km/h
01.11.2017 16:00 15,1 C 53 % 1018,6 hPa 0,0 l/m 0,0 km/h N 5,6 C 15,1 C 0,0 km/h
01.11.2017 17:00 8,4 C 71 % 1018,5 hPa 0,0 l/m 0,0 km/h N 3,5 C 8,4 C 0,0 km/h
01.11.2017 18:00 6,6 C 77 % 1018,9 hPa 0,0 l/m 0,0 km/h N 2,9 C 6,6 C 0,0 km/h
01.11.2017 19:00 5,7 C 81 % 1018,3 hPa 0,0 l/m 0,0 km/h N 2,7 C 5,7 C 0,0 km/h
01.11.2017 20:00 5,6 C 82 % 1018,1 hPa 0,0 l/m 0,0 km/h N 2,8 C 5,6 C 0,0 km/h
01.11.2017 21:00 5,6 C 84 % 1017,6 hPa 0,0 l/m 0,0 km/h N 3,1 C 5,6 C 0,0 km/h
01.11.2017 22:00 5,0 C 84 % 1017,4 hPa 0,0 l/m 0,0 km/h N 2,5 C 5,0 C 0,0 km/h
01.11.2017 23:00 4,9 C 84 % 1016,7 hPa 0,0 l/m 0,0 km/h O 2,4 C 4,9 C 0,0 km/h
02.11.2017 00:00 5,6 C 84 % 1016,6 hPa 0,0 l/m 0,0 km/h O 3,1 C 5,6 C 0,0 km/h
02.11.2017 01:00 5,3 C 83 % 1016,0 hPa 0,0 l/m 0,0 km/h O 2,7 C 5,3 C 0,0 km/h
02.11.2017 02:00 5,3 C 82 % 1015,7 hPa 0,0 l/m 0,0 km/h W-SW 2,5 C 5,3 C 0,0 km/h
02.11.2017 03:00 7,8 C 84 % 1015,6 hPa 0,0 l/m 0,0 km/h S-SW 5,3 C 7,8 C 0,0 km/h
02.11.2017 04:00 11,3 C 75 % 1015,0 hPa 0,0 l/m 1,9 km/h SW 7,0 C 11,3 C 1,1 km/h
02.11.2017 05:00 11,8 C 67 % 1014,7 hPa 0,0 l/m 5,2 km/h S 5,9 C 11,8 C 2,9 km/h
02.11.2017 06:00 12,1 C 66 % 1014,8 hPa 0,0 l/m 14,3 km/h SW 5,9 C 8,0 C 7,9 km/h
02.11.2017 07:00 11,8 C 67 % 1015,2 hPa 0,0 l/m 14,9 km/h S-SW 5,9 C 7,4 C 8,3 km/h
02.11.2017 08:00 12,4 C 65 % 1015,1 hPa 0,0 l/m 19,4 km/h W-SW 6,0 C 6,6 C 10,8 km/h
02.11.2017 09:00 13,2 C 66 % 1015,4 hPa 0,0 l/m 0,0 km/h S-SW 7,0 C 13,2 C 0,0 km/h
02.11.2017 10:00 16,3 C 56 % 1015,4 hPa 0,0 l/m 6,5 km/h SW 7,5 C 16,3 C 3,6 km/h
02.11.2017 11:00 16,6 C 55 % 1014,9 hPa 0,0 l/m 8,4 km/h SW 7,5 C 15,6 C 4,7 km/h
02.11.2017 12:00 15,5 C 59 % 1014,3 hPa 0,0 l/m 0,0 km/h S 7,5 C 15,5 C 0,0 km/h
02.11.2017 13:00 14,9 C 60 % 1014,0 hPa 0,0 l/m 0,0 km/h SW 7,2 C 14,9 C 0,0 km/h
02.11.2017 14:00 15,1 C 62 % 1013,8 hPa 0,0 l/m 23,3 km/h W-SW 7,9 C 9,1 C 13,0 km/h
02.11.2017 15:00 14,6 C 65 % 1013,9 hPa 0,0 l/m 0,0 km/h SW 8,1 C 14,6 C 0,0 km/h
02.11.2017 16:00 13,9 C 68 % 1014,0 hPa 0,0 l/m 0,0 km/h W 8,1 C 13,9 C 0,0 km/h
02.11.2017 17:00 13,4 C 71 % 1014,2 hPa 0,0 l/m 0,0 km/h W 8,3 C 13,4 C 0,0 km/h
02.11.2017 18:00 12,9 C 72 % 1014,4 hPa 0,0 l/m 0,0 km/h W 8,0 C 12,9 C 0,0 km/h
02.11.2017 19:00 11,8 C 76 % 1014,7 hPa 0,0 l/m 0,0 km/h W 7,7 C 11,8 C 0,0 km/h
02.11.2017 20:00 11,2 C 78 % 1014,9 hPa 0,0 l/m 0,0 km/h W 7,5 C 11,2 C 0,0 km/h
02.11.2017 21:00 11,3 C 79 % 1015,2 hPa 0,0 l/m 0,0 km/h W 7,8 C 11,3 C 0,0 km/h
02.11.2017 22:00 10,5 C 81 % 1015,1 hPa 0,0 l/m 0,0 km/h W 7,4 C 10,5 C 0,0 km/h
02.11.2017 23:00 10,3 C 82 % 1015,1 hPa 0,0 l/m 0,0 km/h W 7,4 C 10,3 C 0,0 km/h
03.11.2017 00:00 9,6 C 83 % 1014,7 hPa 0,0 l/m 0,0 km/h W 6,9 C 9,6 C 0,0 km/h
03.11.2017 01:00 9,5 C 84 % 1015,1 hPa 0,0 l/m 0,0 km/h W 6,9 C 9,5 C 0,0 km/h
03.11.2017 02:00 9,6 C 84 % 1014,9 hPa 0,0 l/m 0,0 km/h W 7,0 C 9,6 C 0,0 km/h
03.11.2017 03:00 9,2 C 84 % 1014,7 hPa 0,0 l/m 0,0 km/h W-NW 6,6 C 9,2 C 0,0 km/h
03.11.2017 04:00 8,9 C 83 % 1014,7 hPa 0,0 l/m 0,0 km/h W-NW 6,2 C 8,9 C 0,0 km/h
03.11.2017 05:00 9,1 C 83 % 1014,5 hPa 0,0 l/m 0,0 km/h W-NW 6,4 C 9,1 C 0,0 km/h
03.11.2017 06:00 8,6 C 83 % 1014,4 hPa 0,0 l/m 0,0 km/h W-NW 5,9 C 8,6 C 0,0 km/h
03.11.2017 07:00 8,8 C 83 % 1014,6 hPa 0,0 l/m 0,0 km/h W-NW 6,1 C 8,8 C 0,0 km/h
03.11.2017 08:00 11,8 C 81 % 1014,6 hPa 0,0 l/m 0,0 km/h W-NW 8,6 C 11,8 C 0,0 km/h
03.11.2017 09:00 12,4 C 84 % 1014,4 hPa 0,0 l/m 0,0 km/h NW 9,8 C 12,4 C 0,0 km/h
03.11.2017 10:00 20,1 C 64 % 1014,3 hPa 0,0 l/m 0,0 km/h W 13,1 C 20,1 C 0,0 km/h
03.11.2017 11:00 20,4 C 59 % 1013,7 hPa 0,0 l/m 0,0 km/h N-NW 12,1 C 20,4 C 0,0 km/h
03.11.2017 12:00 20,5 C 56 % 1013,1 hPa 0,0 l/m 0,0 km/h W 11,4 C 20,5 C 0,0 km/h
03.11.2017 13:00 22,1 C 53 % 1012,4 hPa 0,0 l/m 0,0 km/h SW 12,1 C 22,1 C 0,0 km/h
03.11.2017 14:00 24,4 C 45 % 1011,8 hPa 0,0 l/m 0,0 km/h W 11,7 C 24,4 C 0,0 km/h
03.11.2017 15:00 23,0 C 46 % 1011,7 hPa 0,0 l/m 0,0 km/h W 10,7 C 23,0 C 0,0 km/h
03.11.2017 16:00 17,9 C 55 % 1011,3 hPa 0,0 l/m 0,0 km/h W 8,7 C 17,9 C 0,0 km/h
03.11.2017 17:00 9,8 C 75 % 1011,4 hPa 0,0 l/m 0,0 km/h W 5,6 C 9,8 C 0,0 km/h
03.11.2017 18:00 7,2 C 79 % 1011,2 hPa 0,0 l/m 0,0 km/h W 3,8 C 7,2 C 0,0 km/h
03.11.2017 19:00 7,2 C 82 % 1011,2 hPa 0,0 l/m 0,0 km/h W 4,3 C 7,2 C 0,0 km/h
03.11.2017 20:00 6,1 C 83 % 1011,1 hPa 0,0 l/m 0,0 km/h W 3,4 C 6,1 C 0,0 km/h
03.11.2017 21:00 6,4 C 84 % 1011,0 hPa 0,0 l/m 0,0 km/h W 3,9 C 6,4 C 0,0 km/h
03.11.2017 22:00 5,8 C 84 % 1011,1 hPa 0,0 l/m 0,0 km/h W 3,3 C 5,8 C 0,0 km/h
03.11.2017 23:00 5,4 C 84 % 1011,2 hPa 0,0 l/m 0,0 km/h W 2,9 C 5,4 C 0,0 km/h
04.11.2017 00:00 5,5 C 84 % 1010,8 hPa 0,0 l/m 0,0 km/h W 3,0 C 5,5 C 0,0 km/h
04.11.2017 01:00 5,8 C 83 % 1010,7 hPa 0,0 l/m 0,0 km/h O-NO 3,1 C 5,8 C 0,0 km/h
04.11.2017 02:00 6,5 C 82 % 1010,8 hPa 0,0 l/m 0,0 km/h O-SO 3,7 C 6,5 C 0,0 km/h
04.11.2017 03:00 5,8 C 81 % 1010,2 hPa 0,0 l/m 0,0 km/h O-SO 2,8 C 5,8 C 0,0 km/h
04.11.2017 04:00 6,4 C 81 % 1009,6 hPa 0,0 l/m 0,0 km/h O-SO 3,4 C 6,4 C 0,0 km/h
04.11.2017 05:00 6,9 C 80 % 1009,8 hPa 0,0 l/m 0,0 km/h O-SO 3,7 C 6,9 C 0,0 km/h
04.11.2017 06:00 7,4 C 79 % 1009,6 hPa 0,0 l/m 0,0 km/h O 4,0 C 7,4 C 0,0 km/h
04.11.2017 07:00 7,1 C 78 % 1009,7 hPa 0,0 l/m 0,0 km/h O-SO 3,5 C 7,1 C 0,0 km/h
04.11.2017 08:00 9,9 C 75 % 1010,1 hPa 0,0 l/m 0,0 km/h SW 5,7 C 9,9 C 0,0 km/h
04.11.2017 09:00 14,2 C 83 % 1010,1 hPa 0,0 l/m 12,3 km/h W 11,4 C 11,2 C 6,8 km/h
04.11.2017 10:00 19,3 C 65 % 1010,2 hPa 0,0 l/m 0,0 km/h S 12,6 C 19,3 C 0,0 km/h
04.11.2017 11:00 20,3 C 60 % 1009,6 hPa 0,0 l/m 3,9 km/h SW 12,3 C 20,3 C 2,2 km/h
04.11.2017 12:00 20,5 C 58 % 1008,9 hPa 0,0 l/m 13,6 km/h W-SW 11,9 C 18,2 C 7,6 km/h
04.11.2017 13:00 20,2 C 57 % 1008,4 hPa 0,0 l/m 5,8 km/h S-SO 11,4 C 20,2 C 3,2 km/h
04.11.2017 14:00 20,3 C 56 % 1008,0 hPa 0,0 l/m 1,3 km/h S 11,2 C 20,3 C 0,7 km/h
04.11.2017 15:00 21,9 C 53 % 1008,0 hPa 0,0 l/m 0,0 km/h S-SW 11,9 C 21,9 C 0,0 km/h
04.11.2017 16:00 18,2 C 59 % 1007,9 hPa 0,0 l/m 0,0 km/h S-SO 10,1 C 18,2 C 0,0 km/h
04.11.2017 17:00 15,8 C 67 % 1008,0 hPa 0,0 l/m 0,0 km/h SO 9,7 C 15,8 C 0,0 km/h
04.11.2017 18:00 12,9 C 75 % 1008,1 hPa 0,0 l/m 0,0 km/h O 8,6 C 12,9 C 0,0 km/h
04.11.2017 19:00 11,9 C 78 % 1007,7 hPa 0,0 l/m 0,0 km/h N-NO 8,2 C 11,9 C 0,0 km/h
04.11.2017 20:00 10,9 C 82 % 1007,5 hPa 0,0 l/m 0,0 km/h O-SO 7,9 C 10,9 C 0,0 km/h
04.11.2017 21:00 10,5 C 83 % 1007,4 hPa 0,0 l/m 0,0 km/h O-SO 7,7 C 10,5 C 0,0 km/h
04.11.2017 22:00 10,4 C 83 % 1006,6 hPa 0,0 l/m 0,0 km/h O-SO 7,6 C 10,4 C 0,0 km/h
04.11.2017 23:00 10,6 C 83 % 1005,9 hPa 0,0 l/m 0,0 km/h S 7,8 C 10,6 C 0,0 km/h
05.11.2017 00:00 11,5 C 83 % 1006,2 hPa 0,0 l/m 0,0 km/h S 8,7 C 11,5 C 0,0 km/h
05.11.2017 01:00 12,7 C 83 % 1006,4 hPa 0,0 l/m 0,0 km/h S-SW 9,9 C 12,7 C 0,0 km/h
05.11.2017 02:00 12,9 C 82 % 1006,1 hPa 0,0 l/m 0,0 km/h S-SO 9,9 C 12,9 C 0,0 km/h
05.11.2017 03:00 11,8 C 83 % 1005,4 hPa 0,0 l/m 0,0 km/h S 9,0 C 11,8 C 0,0 km/h
05.11.2017 04:00 11,5 C 83 % 1005,1 hPa 0,0 l/m 14,9 km/h S-SO 8,7 C 7,0 C 8,3 km/h
05.11.2017 05:00 11,2 C 83 % 1005,1 hPa 1,0 l/m 0,0 km/h SO 8,4 C 11,2 C 0,0 km/h
05.11.2017 06:00 11,1 C 80 % 1004,5 hPa 1,0 l/m 15,6 km/h S-SO 7,8 C 6,2 C 8,6 km/h
05.11.2017 07:00 11,2 C 78 % 1004,6 hPa 1,0 l/m 0,0 km/h W-SW 7,5 C 11,2 C 0,0 km/h
05.11.2017 08:00 11,2 C 75 % 1005,0 hPa 1,0 l/m 3,2 km/h W 6,9 C 11,2 C 1,8 km/h
05.11.2017 09:00 8,8 C 78 % 1007,4 hPa 4,1 l/m 0,0 km/h W 5,2 C 8,8 C 0,0 km/h
05.11.2017 10:00 8,3 C 77 % 1008,6 hPa 3,1 l/m 0,0 km/h S 4,5 C 8,3 C 0,0 km/h
05.11.2017 11:00 8,1 C 76 % 1009,5 hPa 2,6 l/m 0,0 km/h W-SW 4,1 C 8,1 C 0,0 km/h
05.11.2017 12:00 8,3 C 76 % 1009,4 hPa 0,5 l/m 0,0 km/h W 4,3 C 8,3 C 0,0 km/h
05.11.2017 13:00 8,9 C 82 % 1009,8 hPa 0,0 l/m 0,0 km/h W 6,0 C 8,9 C 0,0 km/h
05.11.2017 14:00 9,1 C 83 % 1010,9 hPa 0,0 l/m 0,0 km/h W-SW 6,4 C 9,1 C 0,0 km/h
05.11.2017 15:00 8,6 C 84 % 1011,2 hPa 0,0 l/m 0,0 km/h SO 6,1 C 8,6 C 0,0 km/h
05.11.2017 16:00 7,6 C 84 % 1011,5 hPa 0,0 l/m 0,0 km/h N 5,1 C 7,6 C 0,0 km/h
05.11.2017 17:00 6,4 C 84 % 1012,3 hPa 0,0 l/m 0,0 km/h N 3,9 C 6,4 C 0,0 km/h
05.11.2017 18:00 6,5 C 85 % 1012,4 hPa 0,0 l/m 0,0 km/h N 4,2 C 6,5 C 0,0 km/h
05.11.2017 19:00 6,1 C 84 % 1013,2 hPa 0,5 l/m 0,0 km/h O-SO 3,6 C 6,1 C 0,0 km/h
05.11.2017 20:00 5,3 C 83 % 1013,6 hPa 0,0 l/m 0,0 km/h O-NO 2,7 C 5,3 C 0,0 km/h
05.11.2017 21:00 5,3 C 83 % 1013,7 hPa 0,0 l/m 0,0 km/h NO 2,7 C 5,3 C 0,0 km/h
05.11.2017 22:00 5,1 C 83 % 1014,0 hPa 0,0 l/m 0,0 km/h NO 2,5 C 5,1 C 0,0 km/h
05.11.2017 23:00 5,1 C 83 % 1014,2 hPa 0,0 l/m 0,0 km/h NO 2,5 C 5,1 C 0,0 km/h
Min-Datum _ 31.10.17 01.11.17 05.11.17 - 30.10.17 - 31.10.17 31.10.17 30.10.17
_ Min-Zeit 07:53 14:53 06:53 - 00:53 - 07:53 07:53 00:53
Minimum _ -2,1 C 37 % 1004,5 hPa - 0,0 km/h - -4,6 C -2,1 C 0,0 km/h
Max-Datum _ 03.11.17 05.11.17 31.10.17 05.11.17 02.11.17 - 03.11.17 03.11.17 02.11.17
_ Max-Zeit 14:53 18:53 08:53 09:53 14:53 - 10:53 14:53 14:53
Maximum _ 24,4 C 85 % 1025,4 hPa 4,1 l/m 23,3 km/h
W-SW
- 13,1 C 24,4 C 13,0 km/h
W-SW
Durchschnitt _ 9,3 C 74 % 1016,2 hPa #15,5 l/m 1,2 km/h W 4,6 C 9,1 C 0,7 km/h
www.sexauwetter.de